Time;durP1;ratioP1;P1;durP2;ratioP2;P2;SDS_P1;SDS_P2;PMS_P1;PMS_P2;Temp;Humidity;BMP_temperature;BMP_pressure;BME280_temperature;BME280_humidity;BME280_pressure;Samples;Min_cycle;Max_cycle;Signal;HPM_P1;HPM_P2
2022/03/04 00:00:20;;;;;;;19.95;9.32;;;1.20;99.90;;;;;;5033502;28;20056;-73
2022/03/04 00:02:46;;;;;;;17.70;8.40;;;1.20;99.90;;;;;;5041441;28;20041;-74
2022/03/04 00:05:11;;;;;;;19.13;9.13;;;1.10;99.90;;;;;;5039078;28;20053;-74
2022/03/04 00:07:37;;;;;;;21.52;9.63;;;1.10;99.90;;;;;;5037350;28;20033;-73
2022/03/04 00:10:03;;;;;;;19.58;9.60;;;1.20;99.90;;;;;;5032913;28;20091;-74
2022/03/04 00:12:29;;;;;;;19.80;9.82;;;1.10;99.90;;;;;;5034787;28;20086;-74
2022/03/04 00:14:55;;;;;;;21.08;9.43;;;1.10;99.90;;;;;;5036755;28;20489;-73
2022/03/04 00:17:21;;;;;;;19.25;9.10;;;1.00;99.90;;;;;;5039736;28;20048;-73
2022/03/04 00:19:46;;;;;;;18.55;8.90;;;1.00;99.90;;;;;;5035716;28;20056;-73
2022/03/04 00:22:14;;;;;;;20.38;9.82;;;1.00;99.90;;;;;;5036920;28;20484;-73
2022/03/04 00:24:40;;;;;;;19.27;9.25;;;1.00;99.90;;;;;;5038949;28;20053;-73
2022/03/04 00:27:05;;;;;;;18.98;10.23;;;1.00;99.90;;;;;;5040664;28;20102;-73
2022/03/04 00:29:31;;;;;;;21.67;9.75;;;0.90;99.90;;;;;;5041264;28;20429;-73
2022/03/04 00:31:57;;;;;;;21.48;9.75;;;0.90;99.90;;;;;;5041191;28;20063;-74
2022/03/04 00:34:23;;;;;;;17.45;8.80;;;0.90;99.90;;;;;;5035034;28;20049;-73
2022/03/04 00:36:49;;;;;;;24.02;9.77;;;0.80;99.90;;;;;;5042250;28;20768;-74
2022/03/04 00:39:15;;;;;;;18.42;9.52;;;0.80;99.90;;;;;;5038003;28;20045;-73
2022/03/04 00:41:42;;;;;;;24.83;10.77;;;0.80;99.90;;;;;;5038949;28;20128;-73
2022/03/04 00:44:08;;;;;;;18.20;8.80;;;0.80;99.90;;;;;;5073033;28;20041;-73
2022/03/04 00:46:34;;;;;;;23.42;10.63;;;0.80;99.90;;;;;;5037047;28;20045;-74
2022/03/04 00:49:00;;;;;;;20.13;9.45;;;0.80;99.90;;;;;;5041103;28;20073;-73
2022/03/04 00:51:26;;;;;;;24.08;9.85;;;0.80;99.90;;;;;;5034859;28;20060;-74
2022/03/04 00:53:52;;;;;;;20.88;9.88;;;0.70;99.90;;;;;;5079616;28;20049;-74
2022/03/04 00:56:18;;;;;;;19.25;8.85;;;0.70;99.90;;;;;;5038189;28;20128;-74
2022/03/04 00:58:44;;;;;;;20.23;9.60;;;0.70;99.90;;;;;;5049444;28;20123;-74
2022/03/04 01:01:09;;;;;;;21.23;9.73;;;0.70;99.90;;;;;;5069517;28;20136;-74
2022/03/04 01:03:35;;;;;;;21.50;9.52;;;0.70;99.90;;;;;;5037750;28;20063;-74
2022/03/04 01:06:05;;;;;;;22.17;9.63;;;0.70;99.90;;;;;;5042668;28;20051;-74
2022/03/04 01:08:31;;;;;;;18.92;10.07;;;0.70;99.90;;;;;;5034541;28;20045;-74
2022/03/04 01:10:56;;;;;;;21.88;10.85;;;0.80;99.90;;;;;;5038216;28;20401;-74
2022/03/04 01:13:23;;;;;;;23.67;10.77;;;0.60;99.90;;;;;;5037488;28;20045;-74
2022/03/04 01:15:49;;;;;;;19.67;10.35;;;0.60;99.90;;;;;;5073190;28;20733;-74
2022/03/04 01:18:15;;;;;;;19.38;9.77;;;0.60;99.90;;;;;;5036860;28;20432;-74
2022/03/04 01:20:42;;;;;;;21.92;10.40;;;0.50;99.90;;;;;;5046743;28;20583;-74
2022/03/04 01:23:07;;;;;;;21.00;10.30;;;0.50;99.90;;;;;;5074556;28;20149;-74
2022/03/04 01:25:33;;;;;;;20.55;9.82;;;0.50;99.90;;;;;;5040852;28;20478;-74
2022/03/04 01:27:59;;;;;;;20.17;10.25;;;0.50;99.90;;;;;;5043492;28;20056;-74
2022/03/04 01:30:25;;;;;;;21.98;11.15;;;0.40;99.90;;;;;;5043112;28;20502;-74
2022/03/04 01:32:51;;;;;;;22.50;11.02;;;0.40;99.90;;;;;;5076563;28;20050;-74
2022/03/04 01:35:17;;;;;;;22.00;10.88;;;0.40;99.90;;;;;;5075496;28;20524;-74
2022/03/04 01:37:43;;;;;;;24.85;11.85;;;0.40;99.90;;;;;;5074047;28;20111;-74
2022/03/04 01:40:10;;;;;;;22.63;10.38;;;0.40;99.90;;;;;;5040821;28;20435;-74
2022/03/04 01:42:36;;;;;;;27.60;12.55;;;0.30;99.90;;;;;;5043588;28;20037;-73
2022/03/04 01:45:04;;;;;;;22.52;10.73;;;0.30;99.90;;;;;;5047206;28;20056;-74
2022/03/04 01:47:30;;;;;;;25.98;11.85;;;0.30;99.90;;;;;;5072184;28;20514;-74
2022/03/04 01:49:56;;;;;;;26.60;12.02;;;0.30;99.90;;;;;;5045052;28;20049;-74
2022/03/04 01:52:22;;;;;;;21.05;10.82;;;0.20;99.90;;;;;;5045415;28;20502;-73
2022/03/04 01:54:48;;;;;;;23.80;11.18;;;0.30;99.90;;;;;;5037127;28;20091;-74
2022/03/04 01:57:14;;;;;;;29.15;11.95;;;0.20;99.90;;;;;;5042066;28;20045;-74
2022/03/04 01:59:39;;;;;;;26.50;11.77;;;0.20;99.90;;;;;;5074234;28;20106;-74
2022/03/04 02:02:06;;;;;;;22.77;11.48;;;0.20;99.90;;;;;;5038707;28;20187;-73
2022/03/04 02:04:32;;;;;;;25.95;11.05;;;0.20;99.90;;;;;;5034720;28;20045;-74
2022/03/04 02:06:57;;;;;;;27.65;12.82;;;0.20;99.90;;;;;;5035715;28;20054;-74
2022/03/04 02:09:23;;;;;;;29.90;12.90;;;0.10;99.90;;;;;;5043849;28;20080;-74
2022/03/04 02:11:48;;;;;;;25.80;12.05;;;0.10;99.90;;;;;;5037778;28;20482;-74
2022/03/04 02:14:15;;;;;;;29.70;12.85;;;0.10;99.90;;;;;;5070278;28;20041;-74
2022/03/04 02:16:48;;;;;;;29.42;12.73;;;0.10;99.90;;;;;;5040388;28;20052;-74
2022/03/04 02:19:15;;;;;;;30.92;12.40;;;0.10;99.90;;;;;;5038159;28;20041;-74
2022/03/04 02:21:51;;;;;;;27.95;12.45;;;0.20;99.90;;;;;;5044041;28;20128;-74
2022/03/04 02:24:17;;;;;;;25.50;12.52;;;0.00;99.90;;;;;;5042948;28;20076;-74
2022/03/04 02:26:43;;;;;;;25.98;11.95;;;0.00;99.90;;;;;;5037913;28;20080;-74
2022/03/04 02:29:09;;;;;;;28.23;12.30;;;0.00;99.90;;;;;;5039869;28;20097;-74
2022/03/04 02:31:35;;;;;;;26.40;11.57;;;0.00;99.90;;;;;;5038314;28;20049;-73
2022/03/04 02:34:00;;;;;;;28.00;12.73;;;0.00;99.90;;;;;;5038053;28;20036;-74
2022/03/04 02:36:26;;;;;;;28.77;12.55;;;-0.10;99.90;;;;;;5038366;28;20591;-73
2022/03/04 02:38:52;;;;;;;27.15;13.07;;;-0.10;99.90;;;;;;5041449;28;20057;-74
2022/03/04 02:41:17;;;;;;;30.08;12.45;;;-0.10;99.90;;;;;;5040197;28;20489;-73
2022/03/04 02:43:43;;;;;;;25.05;11.40;;;-0.10;99.90;;;;;;5038092;28;20053;-74
2022/03/04 02:46:09;;;;;;;23.30;11.60;;;-0.10;99.90;;;;;;5037869;28;20449;-74
2022/03/04 02:48:34;;;;;;;26.65;12.38;;;-0.20;99.90;;;;;;5056444;28;20381;-73
2022/03/04 02:51:00;;;;;;;27.40;11.77;;;-0.10;99.90;;;;;;5045475;28;20088;-73
2022/03/04 02:53:26;;;;;;;28.00;12.50;;;-0.20;99.90;;;;;;5053337;28;20542;-73
2022/03/04 02:55:51;;;;;;;31.27;12.73;;;-0.20;99.90;;;;;;5065484;28;20049;-74
2022/03/04 02:58:18;;;;;;;27.02;12.85;;;-0.10;99.90;;;;;;5072449;28;20557;-74
2022/03/04 03:00:44;;;;;;;30.27;13.55;;;-0.20;99.90;;;;;;5038915;28;20056;-74
2022/03/04 03:03:09;;;;;;;28.85;12.70;;;-0.30;99.90;;;;;;5055995;28;20450;-74
2022/03/04 03:05:35;;;;;;;29.13;13.18;;;-0.30;99.90;;;;;;5040588;28;20048;-73
2022/03/04 03:08:01;;;;;;;30.80;13.95;;;-0.10;99.90;;;;;;5043861;28;20087;-74
2022/03/04 03:10:27;;;;;;;28.38;13.43;;;-0.30;99.90;;;;;;5042401;28;20072;-73
2022/03/04 03:12:52;;;;;;;29.60;14.40;;;-0.40;99.90;;;;;;5042727;28;20045;-74
2022/03/04 03:15:18;;;;;;;30.70;14.10;;;-0.30;99.90;;;;;;5042775;28;20045;-74
2022/03/04 03:17:44;;;;;;;31.35;13.75;;;-0.10;99.90;;;;;;5043441;28;20045;-74
2022/03/04 03:20:10;;;;;;;28.02;13.68;;;-0.40;99.90;;;;;;5039066;28;20136;-74
2022/03/04 03:22:35;;;;;;;33.75;14.75;;;-0.40;99.90;;;;;;5043672;28;20045;-73
2022/03/04 03:25:01;;;;;;;35.10;14.13;;;-0.20;99.90;;;;;;5042195;28;20579;-74
2022/03/04 03:27:27;;;;;;;29.40;13.55;;;-0.40;99.90;;;;;;5045337;28;20045;-74
2022/03/04 03:29:53;;;;;;;31.52;13.55;;;-0.40;99.90;;;;;;5059075;28;20542;-73
2022/03/04 03:32:18;;;;;;;32.20;14.15;;;-0.40;99.90;;;;;;5041857;28;20443;-74
2022/03/04 03:34:44;;;;;;;33.08;13.93;;;-0.40;99.90;;;;;;5042912;28;20048;-73
2022/03/04 03:37:10;;;;;;;36.13;15.15;;;-0.30;99.90;;;;;;5038935;28;20089;-73
2022/03/04 03:39:38;;;;;;;37.40;14.57;;;-0.20;99.90;;;;;;5036600;28;20091;-74
2022/03/04 03:42:05;;;;;;;37.45;15.50;;;-0.20;99.90;;;;;;5057107;28;20053;-74
2022/03/04 03:44:31;;;;;;;31.67;14.60;;;-0.20;99.90;;;;;;5042987;28;20052;-74
2022/03/04 03:46:57;;;;;;;32.95;14.68;;;-0.20;99.90;;;;;;5037861;28;20045;-74
2022/03/04 03:49:23;;;;;;;31.13;13.68;;;-0.20;99.90;;;;;;5035176;28;20068;-74
2022/03/04 03:51:49;;;;;;;34.63;15.98;;;-0.20;99.90;;;;;;5034453;28;20056;-74
2022/03/04 03:54:16;;;;;;;35.70;15.20;;;-0.20;99.90;;;;;;5065591;28;20067;-74
2022/03/04 03:56:41;;;;;;;34.95;15.13;;;-0.10;99.90;;;;;;5060596;28;20040;-74
2022/03/04 03:59:07;;;;;;;34.55;15.05;;;-0.10;99.90;;;;;;5047549;28;20049;-74
2022/03/04 04:01:33;;;;;;;33.08;14.35;;;-0.10;99.90;;;;;;5046236;28;20115;-74
2022/03/04 04:03:59;;;;;;;32.22;15.27;;;0.00;99.90;;;;;;5038659;28;20053;-74
2022/03/04 04:06:25;;;;;;;32.22;14.88;;;0.00;99.90;;;;;;5036771;28;20037;-74
2022/03/04 04:08:50;;;;;;;31.65;14.63;;;0.00;99.90;;;;;;5043390;28;20041;-74
2022/03/04 04:11:16;;;;;;;34.10;15.25;;;0.80;99.90;;;;;;5061360;28;20048;-74
2022/03/04 04:13:41;;;;;;;32.60;15.27;;;0.00;99.90;;;;;;5040239;28;20045;-73
2022/03/04 04:16:07;;;;;;;36.25;15.75;;;0.00;99.90;;;;;;5039785;28;20076;-74
2022/03/04 04:18:33;;;;;;;32.60;14.48;;;0.00;99.90;;;;;;5057421;28;20037;-74
2022/03/04 04:20:59;;;;;;;34.03;15.25;;;-0.10;99.90;;;;;;5042518;28;20136;-74
2022/03/04 04:23:24;;;;;;;35.25;14.60;;;0.00;99.90;;;;;;5041597;28;20511;-74
2022/03/04 04:25:50;;;;;;;38.13;15.85;;;-0.10;99.90;;;;;;5044198;28;20060;-74
2022/03/04 04:28:16;;;;;;;35.22;15.35;;;-0.10;99.90;;;;;;5040928;28;20044;-74
2022/03/04 04:30:41;;;;;;;35.50;15.07;;;-0.10;99.90;;;;;;5041334;28;20122;-73
2022/03/04 04:33:07;;;;;;;30.98;14.85;;;-0.10;99.90;;;;;;5054673;28;20115;-74
2022/03/04 04:35:32;;;;;;;34.63;15.50;;;-0.10;99.90;;;;;;5037217;28;20037;-74
2022/03/04 04:37:58;;;;;;;39.55;16.25;;;-0.10;99.90;;;;;;5038065;28;20041;-74
2022/03/04 04:40:23;;;;;;;44.13;16.52;;;-0.20;99.90;;;;;;5073086;28;20567;-74
2022/03/04 04:42:49;;;;;;;35.38;15.90;;;-0.20;99.90;;;;;;5056450;28;20480;-74
2022/03/04 04:45:15;;;;;;;31.13;14.63;;;-0.10;99.90;;;;;;5034896;28;20396;-74
2022/03/04 04:47:40;;;;;;;40.20;16.75;;;-0.10;99.90;;;;;;5057240;28;20061;-73
2022/03/04 04:50:07;;;;;;;37.65;18.25;;;-0.10;99.90;;;;;;5055332;28;20071;-74
2022/03/04 04:52:33;;;;;;;37.92;16.58;;;-0.10;99.90;;;;;;5045022;28;20051;-74
2022/03/04 04:54:58;;;;;;;38.45;16.92;;;-0.10;99.90;;;;;;5043378;28;20045;-73
2022/03/04 04:57:24;;;;;;;35.00;15.07;;;0.00;99.90;;;;;;5040276;28;20041;-74
2022/03/04 04:59:49;;;;;;;34.25;15.77;;;0.00;99.90;;;;;;5038530;28;20057;-74
2022/03/04 05:02:15;;;;;;;33.97;15.43;;;0.00;99.90;;;;;;5039089;28;20135;-74
2022/03/04 05:04:41;;;;;;;34.22;16.70;;;0.00;99.90;;;;;;5038971;28;20051;-73
2022/03/04 05:07:06;;;;;;;37.25;16.15;;;0.00;99.90;;;;;;5033816;28;20102;-74
2022/03/04 05:09:32;;;;;;;34.38;16.10;;;0.00;99.90;;;;;;5040992;28;20760;-74
2022/03/04 05:11:58;;;;;;;34.63;15.85;;;0.00;99.90;;;;;;5038386;28;20057;-74
2022/03/04 05:14:23;;;;;;;37.30;17.20;;;0.00;99.90;;;;;;5041987;28;20048;-73
2022/03/04 05:16:49;;;;;;;39.83;15.63;;;0.00;99.90;;;;;;5048158;28;20157;-74
2022/03/04 05:19:14;;;;;;;39.67;17.33;;;0.00;99.90;;;;;;5038341;28;20041;-74
2022/03/04 05:21:40;;;;;;;44.70;18.30;;;0.00;99.90;;;;;;5041899;28;20467;-74
2022/03/04 05:24:06;;;;;;;36.97;16.05;;;0.00;99.90;;;;;;5080506;28;20380;-74
2022/03/04 05:26:40;;;;;;;40.92;18.70;;;0.00;99.90;;;;;;5072697;28;20507;-74
2022/03/04 05:29:09;;;;;;;38.38;17.63;;;0.00;99.90;;;;;;5047118;28;20076;-73
2022/03/04 05:31:35;;;;;;;34.28;15.65;;;0.00;99.90;;;;;;5062420;28;20510;-73
2022/03/04 05:34:01;;;;;;;37.17;15.98;;;0.00;99.90;;;;;;5045420;28;20049;-74
2022/03/04 05:36:27;;;;;;;39.08;16.98;;;0.00;99.90;;;;;;5046175;28;20033;-74
2022/03/04 05:38:54;;;;;;;39.70;16.75;;;0.00;99.90;;;;;;5041307;28;20135;-74
2022/03/04 05:41:19;;;;;;;38.05;17.67;;;0.00;99.90;;;;;;5063107;28;20566;-74
2022/03/04 05:43:46;;;;;;;42.13;17.90;;;0.00;99.90;;;;;;5041720;28;20052;-74
2022/03/04 05:46:13;;;;;;;39.20;16.98;;;0.00;99.90;;;;;;5046577;28;20098;-74
2022/03/04 05:48:39;;;;;;;37.35;16.80;;;0.00;99.90;;;;;;5039743;28;20057;-73
2022/03/04 05:51:05;;;;;;;37.45;17.17;;;0.00;99.90;;;;;;5039819;28;20057;-74
2022/03/04 05:53:32;;;;;;;33.88;15.02;;;0.00;99.90;;;;;;5043152;28;20053;-73
2022/03/04 05:55:59;;;;;;;36.53;16.73;;;-0.10;99.90;;;;;;5077517;28;20511;-74
2022/03/04 05:58:25;;;;;;;37.42;16.77;;;0.20;99.90;;;;;;5062458;28;20066;-74
2022/03/04 06:00:51;;;;;;;34.45;16.25;;;0.00;99.90;;;;;;5042786;28;20036;-74
2022/03/04 06:03:16;;;;;;;34.55;16.15;;;-0.10;99.90;;;;;;5073326;28;20488;-74
2022/03/04 06:05:42;;;;;;;36.20;16.65;;;0.00;99.90;;;;;;5046606;28;20056;-73
2022/03/04 06:08:08;;;;;;;36.40;16.73;;;-0.10;99.90;;;;;;5040642;28;20041;-74
2022/03/04 06:10:34;;;;;;;37.10;16.15;;;0.00;99.90;;;;;;5039441;28;20044;-74
2022/03/04 06:12:59;;;;;;;37.75;16.65;;;0.00;99.90;;;;;;5040384;28;20049;-75
2022/03/04 06:15:25;;;;;;;36.40;16.23;;;0.00;99.90;;;;;;5042524;28;20036;-76
2022/03/04 06:17:51;;;;;;;35.17;17.27;;;0.00;99.90;;;;;;5045310;28;20408;-75
2022/03/04 06:20:18;;;;;;;35.53;15.63;;;-0.10;99.90;;;;;;5044250;28;20057;-75
2022/03/04 06:22:44;;;;;;;35.28;16.65;;;-0.10;99.90;;;;;;5042425;28;20049;-74
2022/03/04 06:25:10;;;;;;;36.22;16.80;;;-0.10;99.90;;;;;;5046085;28;20346;-75
2022/03/04 06:27:37;;;;;;;34.65;15.82;;;-0.10;99.90;;;;;;5043540;28;20792;-76
2022/03/04 06:30:04;;;;;;;34.45;15.43;;;-0.10;99.90;;;;;;5044423;28;20776;-75
2022/03/04 06:32:30;;;;;;;36.15;16.33;;;-0.10;99.90;;;;;;5046642;28;20071;-75
2022/03/04 06:34:57;;;;;;;36.22;15.60;;;-0.10;99.90;;;;;;5046782;28;20555;-75
2022/03/04 06:37:23;;;;;;;33.63;15.25;;;0.00;99.90;;;;;;5045491;28;20048;-75
2022/03/04 06:39:49;;;;;;;35.00;15.82;;;0.00;99.90;;;;;;5040020;28;20412;-75
2022/03/04 06:42:14;;;;;;;38.65;17.33;;;0.00;99.90;;;;;;5046497;28;20146;-75
2022/03/04 06:44:40;;;;;;;34.60;15.02;;;0.00;99.90;;;;;;5050937;28;20055;-75
2022/03/04 06:47:05;;;;;;;32.95;15.25;;;0.10;99.90;;;;;;5041582;28;20061;-75
2022/03/04 06:49:31;;;;;;;34.33;15.90;;;0.00;99.90;;;;;;5043724;28;20053;-73
2022/03/04 06:51:57;;;;;;;32.90;15.82;;;0.00;99.90;;;;;;5035663;28;20049;-74
2022/03/04 06:54:22;;;;;;;36.47;15.13;;;0.00;99.90;;;;;;5038858;28;20056;-74
2022/03/04 06:56:48;;;;;;;32.72;14.98;;;0.00;99.90;;;;;;5047599;28;20123;-75
2022/03/04 06:59:13;;;;;;;31.25;15.00;;;0.00;99.90;;;;;;5041635;28;20044;-75
2022/03/04 07:01:39;;;;;;;30.63;15.38;;;0.00;99.90;;;;;;5042572;28;20046;-74
2022/03/04 07:04:04;;;;;;;30.08;13.93;;;0.00;99.90;;;;;;5055045;28;20076;-74
2022/03/04 07:06:30;;;;;;;31.42;14.95;;;0.00;99.90;;;;;;5050010;28;20091;-74
2022/03/04 07:08:56;;;;;;;33.25;14.60;;;0.00;99.90;;;;;;5050820;28;20564;-73
2022/03/04 07:11:21;;;;;;;34.85;15.40;;;0.00;99.90;;;;;;5069112;28;20040;-74
2022/03/04 07:13:47;;;;;;;30.70;15.30;;;0.00;99.90;;;;;;5051482;28;20059;-73
2022/03/04 07:16:12;;;;;;;33.80;14.48;;;0.10;99.90;;;;;;5048091;28;20050;-73
2022/03/04 07:18:38;;;;;;;30.52;14.75;;;0.10;99.90;;;;;;5049191;28;20094;-73
2022/03/04 07:21:03;;;;;;;29.05;14.07;;;0.10;99.90;;;;;;5063876;28;20142;-72
2022/03/04 07:23:29;;;;;;;28.67;13.35;;;0.10;99.90;;;;;;5046136;28;20118;-73
2022/03/04 07:25:55;;;;;;;33.13;14.43;;;0.10;99.90;;;;;;5045746;28;20376;-73
2022/03/04 07:28:20;;;;;;;32.65;14.65;;;0.10;99.90;;;;;;5058768;28;20160;-73
2022/03/04 07:30:46;;;;;;;29.52;14.30;;;0.20;99.90;;;;;;5045875;28;20045;-73
2022/03/04 07:33:11;;;;;;;28.98;14.35;;;0.20;99.90;;;;;;5045842;28;20039;-73
2022/03/04 07:35:44;;;;;;;30.58;15.65;;;0.20;99.90;;;;;;5047826;28;20129;-72
2022/03/04 07:38:14;;;;;;;31.02;14.20;;;0.20;99.90;;;;;;5041483;28;20107;-73
2022/03/04 07:40:40;;;;;;;30.33;14.10;;;0.20;99.90;;;;;;5044002;28;20579;-72
2022/03/04 07:43:05;;;;;;;30.23;14.55;;;0.20;99.90;;;;;;5040290;28;20119;-72
2022/03/04 07:45:31;;;;;;;30.23;15.27;;;0.30;99.90;;;;;;5068662;28;20064;-73
2022/03/04 07:47:57;;;;;;;30.52;14.75;;;0.30;99.90;;;;;;5034579;28;20049;-73
2022/03/04 07:50:22;;;;;;;32.53;14.88;;;0.40;99.90;;;;;;5032785;28;20045;-73
2022/03/04 07:52:48;;;;;;;29.65;14.65;;;0.40;99.90;;;;;;5044737;28;20049;-73
2022/03/04 07:55:15;;;;;;;30.85;14.52;;;0.40;99.90;;;;;;5039649;28;20060;-73
2022/03/04 07:57:42;;;;;;;31.42;15.30;;;0.40;99.90;;;;;;5069508;28;20053;-73
2022/03/04 08:00:12;;;;;;;31.95;15.73;;;0.50;99.90;;;;;;5042462;28;20049;-72
2022/03/04 08:02:39;;;;;;;32.05;15.00;;;0.60;99.90;;;;;;5076119;28;20100;-73
2022/03/04 08:05:08;;;;;;;27.65;15.30;;;0.60;99.90;;;;;;5036045;28;20046;-73
2022/03/04 08:07:34;;;;;;;30.27;14.02;;;0.60;99.90;;;;;;5043470;28;20048;-73
2022/03/04 08:10:00;;;;;;;28.70;14.80;;;0.70;99.90;;;;;;5067359;28;20049;-73
2022/03/04 08:12:25;;;;;;;33.40;16.10;;;0.80;99.90;;;;;;5037007;28;20038;-73
2022/03/04 08:14:51;;;;;;;29.85;14.57;;;0.80;99.90;;;;;;5036679;28;20101;-73
2022/03/04 08:17:17;;;;;;;38.08;16.15;;;0.80;99.90;;;;;;5034929;28;20053;-73
2022/03/04 08:19:43;;;;;;;29.63;15.35;;;0.80;99.90;;;;;;5070991;28;20048;-73
2022/03/04 08:22:09;;;;;;;32.47;15.60;;;1.40;99.90;;;;;;5038655;28;20041;-73
2022/03/04 08:24:34;;;;;;;30.58;14.60;;;0.90;99.90;;;;;;5036404;28;20449;-73
2022/03/04 08:27:00;;;;;;;31.52;15.13;;;0.90;99.90;;;;;;5041184;28;20076;-73
2022/03/04 08:29:26;;;;;;;31.80;15.98;;;1.00;99.90;;;;;;5045195;28;20388;-73
2022/03/04 08:31:51;;;;;;;31.48;14.65;;;1.00;99.90;;;;;;5045998;28;20069;-73
2022/03/04 08:34:17;;;;;;;28.08;13.55;;;1.10;99.90;;;;;;5035493;28;20505;-73
2022/03/04 08:36:43;;;;;;;28.40;13.65;;;1.20;99.90;;;;;;5034961;28;20042;-73
2022/03/04 08:39:08;;;;;;;29.70;15.43;;;1.20;99.90;;;;;;5035816;28;20413;-73
2022/03/04 08:41:34;;;;;;;28.50;13.85;;;1.30;99.90;;;;;;5023469;28;20053;-73
2022/03/04 08:44:01;;;;;;;31.15;14.52;;;1.30;99.90;;;;;;5071938;28;20060;-73
2022/03/04 08:46:27;;;;;;;32.70;14.95;;;1.40;99.90;;;;;;5038613;28;20032;-73
2022/03/04 08:48:53;;;;;;;28.27;15.02;;;1.40;99.90;;;;;;5042083;28;20638;-73
2022/03/04 08:51:24;;;;;;;26.88;16.00;;;1.50;99.90;;;;;;5040034;28;20044;-73
2022/03/04 08:53:51;;;;;;;25.83;13.60;;;1.50;99.90;;;;;;5041057;28;20060;-73
2022/03/04 08:56:17;;;;;;;26.92;14.38;;;1.50;99.90;;;;;;5042031;28;20045;-73
2022/03/04 08:58:43;;;;;;;27.55;14.73;;;1.70;99.90;;;;;;5041948;28;20086;-73
2022/03/04 09:01:09;;;;;;;27.85;14.88;;;1.80;99.90;;;;;;5041609;28;20408;-73
2022/03/04 09:03:35;;;;;;;25.90;13.02;;;1.80;99.90;;;;;;5038679;28;20044;-73
2022/03/04 09:06:00;;;;;;;24.85;12.98;;;1.90;99.90;;;;;;5046510;28;20058;-73
2022/03/04 09:08:26;;;;;;;28.02;13.30;;;2.10;99.90;;;;;;5036433;28;20134;-73
2022/03/04 09:10:52;;;;;;;27.30;13.27;;;2.10;99.90;;;;;;5045993;28;20049;-73
2022/03/04 09:13:18;;;;;;;24.00;12.55;;;2.20;99.90;;;;;;5040682;28;20052;-73
2022/03/04 09:15:43;;;;;;;25.63;13.07;;;2.20;99.90;;;;;;5067047;28;20198;-73
2022/03/04 09:18:09;;;;;;;32.90;14.48;;;2.30;99.90;;;;;;5076438;28;20045;-73
2022/03/04 09:20:35;;;;;;;27.20;14.10;;;2.30;99.90;;;;;;5039217;28;20075;-73
2022/03/04 09:23:01;;;;;;;24.98;12.65;;;2.30;99.90;;;;;;5069310;28;20481;-73
2022/03/04 09:25:27;;;;;;;25.52;13.43;;;2.30;99.90;;;;;;5044314;28;20128;-73
2022/03/04 09:27:53;;;;;;;24.63;13.50;;;2.30;99.90;;;;;;5046037;28;20092;-73
2022/03/04 09:30:19;;;;;;;26.73;13.07;;;2.30;99.90;;;;;;5039364;28;20607;-73
2022/03/04 09:32:45;;;;;;;28.98;13.90;;;2.30;99.90;;;;;;5044705;28;20192;-73
2022/03/04 09:35:11;;;;;;;24.23;12.55;;;2.20;99.90;;;;;;5071156;28;20413;-73
2022/03/04 09:37:37;;;;;;;27.75;13.02;;;2.20;99.90;;;;;;5047585;28;20049;-73
2022/03/04 09:40:05;;;;;;;24.20;13.15;;;2.20;99.90;;;;;;5078388;28;20044;-73
2022/03/04 09:42:32;;;;;;;28.02;13.15;;;2.30;99.90;;;;;;5074628;28;20120;-73
2022/03/04 09:44:59;;;;;;;27.33;13.27;;;2.40;99.90;;;;;;5043905;28;20045;-73
2022/03/04 09:47:24;;;;;;;20.83;12.00;;;2.40;99.90;;;;;;5036966;28;20132;-73
2022/03/04 09:49:53;;;;;;;27.83;13.50;;;2.50;99.90;;;;;;5037257;28;20128;-72
2022/03/04 09:52:19;;;;;;;26.30;13.88;;;2.50;99.90;;;;;;5048310;28;20045;-72
2022/03/04 09:54:50;;;;;;;26.25;13.27;;;2.60;99.90;;;;;;5044320;28;20064;-72
2022/03/04 09:57:17;;;;;;;26.85;12.70;;;2.60;99.90;;;;;;5036433;28;20046;-72
2022/03/04 09:59:43;;;;;;;26.05;12.68;;;2.50;99.90;;;;;;5040364;28;20056;-73
2022/03/04 10:02:14;;;;;;;24.80;12.25;;;2.60;99.90;;;;;;5039937;28;20507;-72
2022/03/04 10:04:40;;;;;;;24.73;12.82;;;2.50;99.90;;;;;;5066583;28;20049;-72
2022/03/04 10:07:14;;;;;;;25.95;13.52;;;2.70;99.90;;;;;;5038938;28;20056;-72
2022/03/04 10:09:49;;;;;;;26.25;13.07;;;2.90;99.90;;;;;;5069656;28;20080;-72
2022/03/04 10:12:16;;;;;;;25.48;13.30;;;3.10;99.90;;;;;;5035606;28;20508;-72
2022/03/04 10:14:55;;;;;;;23.48;12.95;;;3.20;99.90;;;;;;5064490;28;20096;-72
2022/03/04 10:17:21;;;;;;;25.83;13.18;;;3.40;99.90;;;;;;5034862;28;20056;-72
2022/03/04 10:19:57;;;;;;;23.52;13.10;;;3.60;99.90;;;;;;5040132;28;20047;-73
2022/03/04 10:22:32;;;;;;;25.95;13.13;;;3.80;99.90;;;;;;5037286;28;20764;-72
2022/03/04 10:24:58;;;;;;;27.30;14.07;;;4.00;99.90;;;;;;5037386;28;20125;-72
2022/03/04 10:27:24;;;;;;;29.27;13.27;;;4.20;99.90;;;;;;5037372;28;20069;-72
2022/03/04 10:29:50;;;;;;;23.38;12.70;;;4.30;99.90;;;;;;5041518;28;20084;-73
2022/03/04 10:32:23;;;;;;;24.25;13.60;;;4.40;99.90;;;;;;5036839;28;20045;-73
2022/03/04 10:34:51;;;;;;;25.40;15.00;;;4.60;99.90;;;;;;5046080;28;20408;-73
2022/03/04 10:37:40;;;;;;;25.52;13.82;;;4.70;99.90;;;;;;5039901;28;20076;-72
2022/03/04 10:40:08;;;;;;;23.27;13.20;;;4.80;99.90;;;;;;5041798;28;20046;-72
2022/03/04 10:42:54;;;;;;;26.88;12.98;;;4.90;99.90;;;;;;5041018;28;20124;-73
2022/03/04 10:45:26;;;;;;;25.33;14.43;;;5.00;99.90;;;;;;5043272;28;20130;-73
2022/03/04 10:47:57;;;;;;;22.67;12.57;;;5.20;99.90;;;;;;5075006;28;20107;-72
2022/03/04 10:50:34;;;;;;;26.02;13.05;;;5.30;99.90;;;;;;5043201;28;20044;-72
2022/03/04 10:53:01;;;;;;;26.10;13.75;;;5.40;99.90;;;;;;5070379;28;20054;-72
2022/03/04 10:55:35;;;;;;;22.30;13.18;;;5.50;99.90;;;;;;5032514;28;20094;-72
2022/03/04 10:58:02;;;;;;;;;;;5.70;99.90;;;;;;5035903;28;20041;-72
2022/03/04 11:00:32;;;;;;;23.45;13.23;;;5.80;99.90;;;;;;5036661;28;19921;-74
2022/03/04 11:02:59;;;;;;;28.27;13.48;;;5.90;99.90;;;;;;5038386;28;20060;-74
2022/03/04 11:05:25;;;;;;;24.10;13.20;;;6.00;99.90;;;;;;5037292;28;20386;-73
2022/03/04 11:07:51;;;;;;;24.48;14.98;;;6.20;99.90;;;;;;5037495;28;20052;-74
2022/03/04 11:10:19;;;;;;;23.38;13.38;;;6.30;99.90;;;;;;5033700;28;20038;-74
2022/03/04 11:12:46;;;;;;;23.25;13.77;;;6.30;99.90;;;;;;5037426;28;20049;-73
2022/03/04 11:15:13;;;;;;;23.13;13.38;;;6.50;99.90;;;;;;5037783;28;20171;-72
2022/03/04 11:17:39;;;;;;;23.70;13.15;;;6.60;99.90;;;;;;5035530;28;20068;-73
2022/03/04 11:20:06;;;;;;;21.38;12.23;;;6.70;99.90;;;;;;5035215;28;20075;-72
2022/03/04 11:22:33;;;;;;;21.20;12.32;;;6.80;99.90;;;;;;5041673;28;20073;-72
2022/03/04 11:25:05;;;;;;;24.23;12.80;;;6.80;99.90;;;;;;5036373;28;20056;-72
2022/03/04 11:27:35;;;;;;;20.17;12.52;;;6.90;99.90;;;;;;5042620;28;20052;-73
2022/03/04 11:30:00;;;;;;;21.55;11.48;;;7.00;99.90;;;;;;5039805;28;20049;-72
2022/03/04 11:32:30;;;;;;;20.58;12.13;;;7.20;99.90;;;;;;5033918;28;20060;-73
2022/03/04 11:34:56;;;;;;;21.55;12.15;;;7.30;99.90;;;;;;5065158;28;20124;-72
2022/03/04 11:37:22;;;;;;;21.60;12.82;;;7.40;99.90;;;;;;5039539;28;20607;-72
2022/03/04 11:40:33;;;;;;;24.77;13.40;;;7.50;99.90;;;;;;5071184;28;20053;-74
2022/03/04 11:42:56;;;;;;;20.83;11.70;;;7.60;99.90;;;;;;5038122;28;20148;-73
2022/03/04 11:45:32;;;;;;;23.77;13.43;;;7.70;99.90;;;;;;5036305;28;20463;-73
2022/03/04 11:48:03;;;;;;;24.85;12.88;;;7.90;99.90;;;;;;5040653;28;20453;-73
2022/03/04 11:50:32;;;;;;;20.33;12.77;;;7.90;99.90;;;;;;5035610;28;20401;-73
2022/03/04 11:53:12;;;;;;;19.58;11.70;;;8.10;99.90;;;;;;5035005;28;20037;-72
2022/03/04 11:55:38;;;;;;;21.67;12.60;;;8.40;99.90;;;;;;5050452;28;20080;-73
2022/03/04 11:58:05;;;;;;;20.17;11.50;;;8.30;99.90;;;;;;5040746;28;20080;-73
2022/03/04 12:00:33;;;;;;;19.33;11.40;;;8.70;99.90;;;;;;5039175;28;20046;-73
2022/03/04 12:03:09;;;;;;;18.42;10.70;;;8.40;99.90;;;;;;5040588;28;20041;-73
2022/03/04 12:05:35;;;;;;;26.80;11.93;;;8.60;99.90;;;;;;5069144;28;20048;-73
2022/03/04 12:08:00;;;;;;;21.58;12.23;;;8.70;99.90;;;;;;5033635;28;20523;-73
2022/03/04 12:10:31;;;;;;;20.65;11.48;;;8.80;99.90;;;;;;5040793;28;20044;-73
2022/03/04 12:13:21;;;;;;;20.83;11.70;;;8.80;99.90;;;;;;5034009;28;20516;-73
2022/03/04 12:15:52;;;;;;;20.95;11.25;;;8.90;99.90;;;;;;5040224;28;20489;-73
2022/03/04 12:18:21;;;;;;;18.73;11.07;;;8.90;99.90;;;;;;5035785;28;20045;-73
2022/03/04 12:20:46;;;;;;;20.52;11.02;;;8.90;99.90;;;;;;5033058;28;20540;-73
2022/03/04 12:23:17;;;;;;;18.83;11.18;;;8.90;99.90;;;;;;5037294;28;20076;-72
2022/03/04 12:25:52;;;;;;;19.65;11.88;;;9.00;99.90;;;;;;5044026;28;20045;-73
2022/03/04 12:28:20;;;;;;;17.60;10.40;;;9.00;99.90;;;;;;5042410;28;20050;-73
2022/03/04 12:31:06;;;;;;;17.60;11.18;;;9.00;99.90;;;;;;5039471;28;20041;-73
2022/03/04 12:33:33;;;;;;;17.90;10.18;;;9.10;99.90;;;;;;5040258;28;20196;-73